Old Town, Iowa
Current Conditions -  °F | °C
As of 12:34 PM on Wednesday 26 Nov 2014 (Local Time) from KSPW Reporting Station
Light Snow Light Snow  
Wind Chill: 13°   Ceiling: 1600
Heat Index: 26°   Visibility: 2.5mi
Dew Point: 21°   Wind: 18mph
Humidity: 81%   Direction: 10°N
Pressure: 30.13"   Gusts: 26mph
Location:  43.2989°N, 95.2104°W
Report Text: KSPW 261834Z AUTO 01016G23KT 2 1/2SM -SN BKN016 OVC024 M03/M06 A3013 RMK AO2 P0000 T10331061 TSNO
Loading
Personal Weather Stations






























Interactive Weather Map New forecast layout! Learn more

10-Day Weather Forecast

Advertisements
Track Severe Weather on mobile